Terminal Aerodrome Forecast
Issued by NWS Wilmington, NC

Home | Current Version | Previous Version | Text Only | Print | Product List | Glossary On
Versions: 1 2 3 4 5 6 7 8 9 10 11 12 13 14 15 16 17
538
FTUS42 KILM 300846 AAB
TAFLBT
TAF AMD
KLBT 300846Z 3009/3106 07006KT P6SM OVC004
      TEMPO 3009/3011 SCT004 BKN035
     FM301200 02004KT P6SM -SHRA SCT006 BKN015
     FM301800 03010KT 6SM -SHRA OVC025
     FM310200 05004KT P6SM VCSH SCT015 OVC025=

USA.gov is the U.S. government's official web portal to all federal, state and local government web resources and services.